sensor_id;sensor_type;location;lat;lon;timestamp;P1;durP1;ratioP1;P2;durP2;ratioP2
6354;SDS011;3210;48.708;9.030;2022-08-16T00:02:14;5.77;;;3.30;;
6354;SDS011;3210;48.708;9.030;2022-08-16T00:04:41;4.20;;;2.97;;
6354;SDS011;3210;48.708;9.030;2022-08-16T00:07:08;5.57;;;3.77;;
6354;SDS011;3210;48.708;9.030;2022-08-16T00:09:35;3.90;;;3.20;;
6354;SDS011;3210;48.708;9.030;2022-08-16T00:12:02;3.37;;;2.50;;
6354;SDS011;3210;48.708;9.030;2022-08-16T00:14:30;3.57;;;3.27;;
6354;SDS011;3210;48.708;9.030;2022-08-16T00:16:59;2.50;;;2.30;;
6354;SDS011;3210;48.708;9.030;2022-08-16T00:19:28;3.00;;;2.80;;
6354;SDS011;3210;48.708;9.030;2022-08-16T00:21:57;3.13;;;2.70;;
6354;SDS011;3210;48.708;9.030;2022-08-16T00:24:25;5.03;;;2.97;;
6354;SDS011;3210;48.708;9.030;2022-08-16T00:26:52;3.50;;;3.20;;
6354;SDS011;3210;48.708;9.030;2022-08-16T00:29:19;7.53;;;2.97;;
6354;SDS011;3210;48.708;9.030;2022-08-16T00:31:48;4.73;;;3.40;;
6354;SDS011;3210;48.708;9.030;2022-08-16T00:34:18;5.50;;;3.10;;
6354;SDS011;3210;48.708;9.030;2022-08-16T00:36:46;5.10;;;3.73;;
6354;SDS011;3210;48.708;9.030;2022-08-16T00:39:13;3.80;;;3.50;;
6354;SDS011;3210;48.708;9.030;2022-08-16T00:41:41;3.50;;;3.30;;
6354;SDS011;3210;48.708;9.030;2022-08-16T00:44:09;3.93;;;3.63;;
6354;SDS011;3210;48.708;9.030;2022-08-16T00:46:38;4.90;;;3.30;;
6354;SDS011;3210;48.708;9.030;2022-08-16T00:49:11;3.40;;;3.03;;
6354;SDS011;3210;48.708;9.030;2022-08-16T00:51:40;5.00;;;3.27;;
6354;SDS011;3210;48.708;9.030;2022-08-16T00:54:07;4.17;;;3.30;;
6354;SDS011;3210;48.708;9.030;2022-08-16T00:56:36;6.33;;;3.50;;
6354;SDS011;3210;48.708;9.030;2022-08-16T00:59:05;3.97;;;3.57;;
6354;SDS011;3210;48.708;9.030;2022-08-16T01:01:33;6.80;;;3.43;;
6354;SDS011;3210;48.708;9.030;2022-08-16T01:04:00;5.30;;;3.37;;
6354;SDS011;3210;48.708;9.030;2022-08-16T01:06:28;3.20;;;3.00;;
6354;SDS011;3210;48.708;9.030;2022-08-16T01:08:57;4.83;;;3.47;;
6354;SDS011;3210;48.708;9.030;2022-08-16T01:11:24;3.53;;;3.23;;
6354;SDS011;3210;48.708;9.030;2022-08-16T01:13:54;5.13;;;3.87;;
6354;SDS011;3210;48.708;9.030;2022-08-16T01:16:25;3.83;;;3.33;;
6354;SDS011;3210;48.708;9.030;2022-08-16T01:18:58;4.77;;;3.00;;
6354;SDS011;3210;48.708;9.030;2022-08-16T01:21:42;6.63;;;3.90;;
6354;SDS011;3210;48.708;9.030;2022-08-16T01:24:19;5.87;;;4.20;;
6354;SDS011;3210;48.708;9.030;2022-08-16T01:26:50;4.30;;;3.90;;
6354;SDS011;3210;48.708;9.030;2022-08-16T01:29:20;4.17;;;3.70;;
6354;SDS011;3210;48.708;9.030;2022-08-16T01:31:51;5.00;;;3.50;;
6354;SDS011;3210;48.708;9.030;2022-08-16T01:34:18;4.60;;;3.70;;
6354;SDS011;3210;48.708;9.030;2022-08-16T01:36:45;3.60;;;3.33;;
6354;SDS011;3210;48.708;9.030;2022-08-16T01:39:14;6.20;;;3.60;;
6354;SDS011;3210;48.708;9.030;2022-08-16T01:41:44;7.53;;;3.70;;
6354;SDS011;3210;48.708;9.030;2022-08-16T01:44:11;4.20;;;3.70;;
6354;SDS011;3210;48.708;9.030;2022-08-16T01:46:39;6.10;;;3.10;;
6354;SDS011;3210;48.708;9.030;2022-08-16T01:49:09;3.77;;;3.47;;
6354;SDS011;3210;48.708;9.030;2022-08-16T01:51:38;7.63;;;3.70;;
6354;SDS011;3210;48.708;9.030;2022-08-16T01:54:05;3.70;;;3.40;;
6354;SDS011;3210;48.708;9.030;2022-08-16T01:56:33;6.50;;;4.47;;
6354;SDS011;3210;48.708;9.030;2022-08-16T01:59:03;7.47;;;4.00;;
6354;SDS011;3210;48.708;9.030;2022-08-16T02:01:33;4.57;;;3.87;;
6354;SDS011;3210;48.708;9.030;2022-08-16T02:04:01;6.93;;;4.30;;
6354;SDS011;3210;48.708;9.030;2022-08-16T02:06:28;3.70;;;3.40;;
6354;SDS011;3210;48.708;9.030;2022-08-16T02:08:55;5.57;;;4.07;;
6354;SDS011;3210;48.708;9.030;2022-08-16T02:11:22;3.93;;;3.57;;
6354;SDS011;3210;48.708;9.030;2022-08-16T02:13:50;4.40;;;3.67;;
6354;SDS011;3210;48.708;9.030;2022-08-16T02:16:18;4.33;;;3.93;;
6354;SDS011;3210;48.708;9.030;2022-08-16T02:18:45;5.63;;;3.87;;
6354;SDS011;3210;48.708;9.030;2022-08-16T02:21:12;3.73;;;2.93;;
6354;SDS011;3210;48.708;9.030;2022-08-16T02:23:39;8.13;;;3.93;;
6354;SDS011;3210;48.708;9.030;2022-08-16T02:26:07;4.70;;;3.83;;
6354;SDS011;3210;48.708;9.030;2022-08-16T02:28:34;4.07;;;3.73;;
6354;SDS011;3210;48.708;9.030;2022-08-16T02:31:02;3.93;;;3.63;;
6354;SDS011;3210;48.708;9.030;2022-08-16T02:33:32;6.03;;;3.57;;
6354;SDS011;3210;48.708;9.030;2022-08-16T02:35:59;5.40;;;4.00;;
6354;SDS011;3210;48.708;9.030;2022-08-16T02:38:27;4.43;;;3.57;;
6354;SDS011;3210;48.708;9.030;2022-08-16T02:40:55;6.00;;;4.00;;
6354;SDS011;3210;48.708;9.030;2022-08-16T02:43:23;3.90;;;3.50;;
6354;SDS011;3210;48.708;9.030;2022-08-16T02:45:51;4.03;;;3.63;;
6354;SDS011;3210;48.708;9.030;2022-08-16T02:48:18;3.80;;;3.50;;
6354;SDS011;3210;48.708;9.030;2022-08-16T02:50:46;3.63;;;3.33;;
6354;SDS011;3210;48.708;9.030;2022-08-16T02:53:13;4.20;;;3.20;;
6354;SDS011;3210;48.708;9.030;2022-08-16T02:55:40;6.17;;;3.40;;
6354;SDS011;3210;48.708;9.030;2022-08-16T02:58:07;3.77;;;3.00;;
6354;SDS011;3210;48.708;9.030;2022-08-16T03:00:34;5.07;;;3.40;;
6354;SDS011;3210;48.708;9.030;2022-08-16T03:03:01;4.83;;;3.47;;
6354;SDS011;3210;48.708;9.030;2022-08-16T03:05:28;4.53;;;3.13;;
6354;SDS011;3210;48.708;9.030;2022-08-16T03:07:56;4.10;;;3.67;;
6354;SDS011;3210;48.708;9.030;2022-08-16T03:10:23;4.07;;;3.67;;
6354;SDS011;3210;48.708;9.030;2022-08-16T03:12:50;3.80;;;3.33;;
6354;SDS011;3210;48.708;9.030;2022-08-16T03:15:16;3.83;;;3.50;;
6354;SDS011;3210;48.708;9.030;2022-08-16T03:17:43;4.07;;;3.77;;
6354;SDS011;3210;48.708;9.030;2022-08-16T03:20:11;4.40;;;4.00;;
6354;SDS011;3210;48.708;9.030;2022-08-16T03:22:41;8.23;;;4.10;;
6354;SDS011;3210;48.708;9.030;2022-08-16T03:25:10;4.53;;;4.10;;
6354;SDS011;3210;48.708;9.030;2022-08-16T03:27:39;8.07;;;3.70;;
6354;SDS011;3210;48.708;9.030;2022-08-16T03:30:07;4.67;;;3.37;;
6354;SDS011;3210;48.708;9.030;2022-08-16T03:32:35;4.50;;;4.10;;
6354;SDS011;3210;48.708;9.030;2022-08-16T03:35:03;5.67;;;3.93;;
6354;SDS011;3210;48.708;9.030;2022-08-16T03:37:30;6.10;;;4.47;;
6354;SDS011;3210;48.708;9.030;2022-08-16T03:39:57;13.13;;;3.57;;
6354;SDS011;3210;48.708;9.030;2022-08-16T03:42:25;7.73;;;4.13;;
6354;SDS011;3210;48.708;9.030;2022-08-16T03:44:52;7.53;;;3.60;;
6354;SDS011;3210;48.708;9.030;2022-08-16T03:47:19;6.03;;;4.07;;
6354;SDS011;3210;48.708;9.030;2022-08-16T03:49:46;3.97;;;3.67;;
6354;SDS011;3210;48.708;9.030;2022-08-16T03:52:14;4.23;;;3.93;;
6354;SDS011;3210;48.708;9.030;2022-08-16T03:54:41;4.20;;;3.13;;
6354;SDS011;3210;48.708;9.030;2022-08-16T03:57:08;4.33;;;3.60;;
6354;SDS011;3210;48.708;9.030;2022-08-16T03:59:36;5.47;;;3.90;;
6354;SDS011;3210;48.708;9.030;2022-08-16T04:02:03;4.03;;;3.30;;
6354;SDS011;3210;48.708;9.030;2022-08-16T04:04:30;4.73;;;3.60;;
6354;SDS011;3210;48.708;9.030;2022-08-16T04:07:00;4.10;;;3.30;;
6354;SDS011;3210;48.708;9.030;2022-08-16T04:09:28;4.00;;;3.43;;
6354;SDS011;3210;48.708;9.030;2022-08-16T04:11:56;4.90;;;3.43;;
6354;SDS011;3210;48.708;9.030;2022-08-16T04:14:22;4.07;;;3.67;;
6354;SDS011;3210;48.708;9.030;2022-08-16T04:16:51;7.10;;;3.37;;
6354;SDS011;3210;48.708;9.030;2022-08-16T04:19:19;4.40;;;4.00;;
6354;SDS011;3210;48.708;9.030;2022-08-16T04:21:49;3.90;;;3.57;;
6354;SDS011;3210;48.708;9.030;2022-08-16T04:24:16;5.03;;;3.80;;
6354;SDS011;3210;48.708;9.030;2022-08-16T04:26:43;4.47;;;3.97;;
6354;SDS011;3210;48.708;9.030;2022-08-16T04:29:10;3.83;;;3.10;;
6354;SDS011;3210;48.708;9.030;2022-08-16T04:31:37;4.13;;;3.50;;
6354;SDS011;3210;48.708;9.030;2022-08-16T04:34:05;3.87;;;3.57;;
6354;SDS011;3210;48.708;9.030;2022-08-16T04:36:32;3.70;;;3.40;;
6354;SDS011;3210;48.708;9.030;2022-08-16T04:38:59;6.20;;;3.87;;
6354;SDS011;3210;48.708;9.030;2022-08-16T04:41:26;5.40;;;4.70;;
6354;SDS011;3210;48.708;9.030;2022-08-16T04:43:54;6.00;;;3.93;;
6354;SDS011;3210;48.708;9.030;2022-08-16T04:46:22;7.03;;;4.67;;
6354;SDS011;3210;48.708;9.030;2022-08-16T04:48:49;6.27;;;4.07;;
6354;SDS011;3210;48.708;9.030;2022-08-16T04:51:17;4.23;;;3.70;;
6354;SDS011;3210;48.708;9.030;2022-08-16T04:53:44;7.60;;;3.80;;
6354;SDS011;3210;48.708;9.030;2022-08-16T04:56:11;4.47;;;4.00;;
6354;SDS011;3210;48.708;9.030;2022-08-16T04:58:38;10.63;;;3.47;;
6354;SDS011;3210;48.708;9.030;2022-08-16T05:01:05;5.13;;;4.30;;
6354;SDS011;3210;48.708;9.030;2022-08-16T05:03:31;3.90;;;3.60;;
6354;SDS011;3210;48.708;9.030;2022-08-16T05:05:58;4.70;;;4.20;;
6354;SDS011;3210;48.708;9.030;2022-08-16T05:08:27;3.90;;;3.60;;
6354;SDS011;3210;48.708;9.030;2022-08-16T05:10:55;4.50;;;3.93;;
6354;SDS011;3210;48.708;9.030;2022-08-16T05:13:22;4.80;;;3.60;;
6354;SDS011;3210;48.708;9.030;2022-08-16T05:15:48;6.63;;;3.47;;
6354;SDS011;3210;48.708;9.030;2022-08-16T05:18:15;5.83;;;3.87;;
6354;SDS011;3210;48.708;9.030;2022-08-16T05:20:42;4.80;;;3.73;;
6354;SDS011;3210;48.708;9.030;2022-08-16T05:23:09;4.13;;;3.80;;
6354;SDS011;3210;48.708;9.030;2022-08-16T05:25:37;7.90;;;3.70;;
6354;SDS011;3210;48.708;9.030;2022-08-16T05:28:04;6.10;;;3.83;;
6354;SDS011;3210;48.708;9.030;2022-08-16T05:30:34;4.00;;;3.70;;
6354;SDS011;3210;48.708;9.030;2022-08-16T05:33:01;5.17;;;3.13;;
6354;SDS011;3210;48.708;9.030;2022-08-16T05:35:28;4.80;;;3.80;;
6354;SDS011;3210;48.708;9.030;2022-08-16T05:37:55;6.07;;;3.73;;
6354;SDS011;3210;48.708;9.030;2022-08-16T05:40:22;5.03;;;3.83;;
6354;SDS011;3210;48.708;9.030;2022-08-16T05:42:50;3.93;;;3.50;;
6354;SDS011;3210;48.708;9.030;2022-08-16T05:45:16;3.90;;;3.53;;
6354;SDS011;3210;48.708;9.030;2022-08-16T05:47:43;3.70;;;3.40;;
6354;SDS011;3210;48.708;9.030;2022-08-16T05:50:10;3.93;;;3.53;;
6354;SDS011;3210;48.708;9.030;2022-08-16T05:52:37;3.73;;;3.43;;
6354;SDS011;3210;48.708;9.030;2022-08-16T05:55:05;4.17;;;3.60;;
6354;SDS011;3210;48.708;9.030;2022-08-16T05:57:32;3.73;;;3.43;;
6354;SDS011;3210;48.708;9.030;2022-08-16T06:00:01;4.80;;;4.17;;
6354;SDS011;3210;48.708;9.030;2022-08-16T06:02:30;3.77;;;3.47;;
6354;SDS011;3210;48.708;9.030;2022-08-16T06:04:58;5.33;;;3.40;;
6354;SDS011;3210;48.708;9.030;2022-08-16T06:07:25;6.00;;;3.70;;
6354;SDS011;3210;48.708;9.030;2022-08-16T06:09:52;5.00;;;3.60;;
6354;SDS011;3210;48.708;9.030;2022-08-16T06:12:22;14.87;;;3.53;;
6354;SDS011;3210;48.708;9.030;2022-08-16T06:14:49;4.50;;;4.10;;
6354;SDS011;3210;48.708;9.030;2022-08-16T06:17:17;4.97;;;4.00;;
6354;SDS011;3210;48.708;9.030;2022-08-16T06:19:44;10.33;;;4.03;;
6354;SDS011;3210;48.708;9.030;2022-08-16T06:22:10;13.63;;;4.83;;
6354;SDS011;3210;48.708;9.030;2022-08-16T06:24:37;3.90;;;3.57;;
6354;SDS011;3210;48.708;9.030;2022-08-16T06:27:04;4.60;;;3.80;;
6354;SDS011;3210;48.708;9.030;2022-08-16T06:29:31;10.00;;;3.87;;
6354;SDS011;3210;48.708;9.030;2022-08-16T06:31:58;7.20;;;4.43;;
6354;SDS011;3210;48.708;9.030;2022-08-16T06:34:26;5.93;;;4.03;;
6354;SDS011;3210;48.708;9.030;2022-08-16T06:36:53;5.60;;;4.17;;
6354;SDS011;3210;48.708;9.030;2022-08-16T06:39:20;4.90;;;3.80;;
6354;SDS011;3210;48.708;9.030;2022-08-16T06:41:47;9.83;;;4.60;;
6354;SDS011;3210;48.708;9.030;2022-08-16T06:44:13;8.00;;;3.73;;
6354;SDS011;3210;48.708;9.030;2022-08-16T06:46:40;7.30;;;4.23;;
6354;SDS011;3210;48.708;9.030;2022-08-16T06:49:08;11.13;;;4.53;;
6354;SDS011;3210;48.708;9.030;2022-08-16T06:51:38;9.80;;;5.00;;
6354;SDS011;3210;48.708;9.030;2022-08-16T06:54:07;7.30;;;4.80;;
6354;SDS011;3210;48.708;9.030;2022-08-16T06:56:35;8.17;;;4.73;;
6354;SDS011;3210;48.708;9.030;2022-08-16T06:59:02;7.63;;;3.77;;
6354;SDS011;3210;48.708;9.030;2022-08-16T07:01:29;4.07;;;3.70;;
6354;SDS011;3210;48.708;9.030;2022-08-16T07:03:56;10.17;;;4.80;;
6354;SDS011;3210;48.708;9.030;2022-08-16T07:06:23;4.80;;;4.10;;
6354;SDS011;3210;48.708;9.030;2022-08-16T07:08:51;5.17;;;3.73;;
6354;SDS011;3210;48.708;9.030;2022-08-16T07:11:19;6.40;;;4.37;;
6354;SDS011;3210;48.708;9.030;2022-08-16T07:13:46;6.23;;;3.87;;
6354;SDS011;3210;48.708;9.030;2022-08-16T07:16:14;4.87;;;3.73;;
6354;SDS011;3210;48.708;9.030;2022-08-16T07:18:41;7.40;;;4.17;;
6354;SDS011;3210;48.708;9.030;2022-08-16T07:21:08;5.37;;;4.80;;
6354;SDS011;3210;48.708;9.030;2022-08-16T07:23:36;8.10;;;4.73;;
6354;SDS011;3210;48.708;9.030;2022-08-16T07:26:05;6.17;;;4.47;;
6354;SDS011;3210;48.708;9.030;2022-08-16T07:28:35;7.37;;;4.50;;
6354;SDS011;3210;48.708;9.030;2022-08-16T07:31:02;11.87;;;5.30;;
6354;SDS011;3210;48.708;9.030;2022-08-16T07:33:30;5.47;;;4.93;;
6354;SDS011;3210;48.708;9.030;2022-08-16T07:35:58;5.20;;;4.70;;
6354;SDS011;3210;48.708;9.030;2022-08-16T07:38:25;7.00;;;4.80;;
6354;SDS011;3210;48.708;9.030;2022-08-16T07:40:53;5.90;;;5.07;;
6354;SDS011;3210;48.708;9.030;2022-08-16T07:43:22;7.37;;;4.93;;
6354;SDS011;3210;48.708;9.030;2022-08-16T07:45:49;14.20;;;5.67;;
6354;SDS011;3210;48.708;9.030;2022-08-16T07:48:16;5.63;;;4.97;;
6354;SDS011;3210;48.708;9.030;2022-08-16T07:50:43;5.00;;;4.37;;
6354;SDS011;3210;48.708;9.030;2022-08-16T07:53:11;7.07;;;4.67;;
6354;SDS011;3210;48.708;9.030;2022-08-16T07:55:38;6.03;;;4.83;;
6354;SDS011;3210;48.708;9.030;2022-08-16T07:58:05;7.63;;;4.27;;
6354;SDS011;3210;48.708;9.030;2022-08-16T08:00:33;8.70;;;5.40;;
6354;SDS011;3210;48.708;9.030;2022-08-16T08:03:00;8.40;;;5.03;;
6354;SDS011;3210;48.708;9.030;2022-08-16T08:05:28;11.27;;;5.33;;
6354;SDS011;3210;48.708;9.030;2022-08-16T08:07:54;8.00;;;4.97;;
6354;SDS011;3210;48.708;9.030;2022-08-16T08:10:23;6.27;;;4.80;;
6354;SDS011;3210;48.708;9.030;2022-08-16T08:12:51;9.20;;;5.13;;
6354;SDS011;3210;48.708;9.030;2022-08-16T08:15:19;7.77;;;5.10;;
6354;SDS011;3210;48.708;9.030;2022-08-16T08:17:48;6.80;;;5.27;;
6354;SDS011;3210;48.708;9.030;2022-08-16T08:20:16;9.50;;;5.20;;
6354;SDS011;3210;48.708;9.030;2022-08-16T08:22:45;6.47;;;4.90;;
6354;SDS011;3210;48.708;9.030;2022-08-16T08:25:13;9.17;;;5.20;;
6354;SDS011;3210;48.708;9.030;2022-08-16T08:27:42;5.00;;;4.50;;
6354;SDS011;3210;48.708;9.030;2022-08-16T08:30:09;4.83;;;4.33;;
6354;SDS011;3210;48.708;9.030;2022-08-16T08:32:36;11.13;;;4.83;;
6354;SDS011;3210;48.708;9.030;2022-08-16T08:35:06;12.87;;;5.53;;
6354;SDS011;3210;48.708;9.030;2022-08-16T08:37:34;9.43;;;5.53;;
6354;SDS011;3210;48.708;9.030;2022-08-16T08:40:03;8.20;;;5.10;;
6354;SDS011;3210;48.708;9.030;2022-08-16T08:42:31;8.57;;;4.33;;
6354;SDS011;3210;48.708;9.030;2022-08-16T08:44:58;6.30;;;4.53;;
6354;SDS011;3210;48.708;9.030;2022-08-16T08:47:27;6.73;;;4.73;;
6354;SDS011;3210;48.708;9.030;2022-08-16T08:49:54;6.87;;;4.20;;
6354;SDS011;3210;48.708;9.030;2022-08-16T08:52:24;4.87;;;4.40;;
6354;SDS011;3210;48.708;9.030;2022-08-16T08:54:51;6.53;;;4.23;;
6354;SDS011;3210;48.708;9.030;2022-08-16T08:57:18;11.50;;;4.43;;
6354;SDS011;3210;48.708;9.030;2022-08-16T08:59:45;8.00;;;4.70;;
6354;SDS011;3210;48.708;9.030;2022-08-16T09:02:12;4.37;;;4.00;;
6354;SDS011;3210;48.708;9.030;2022-08-16T09:04:40;4.97;;;4.13;;
6354;SDS011;3210;48.708;9.030;2022-08-16T09:07:08;8.00;;;4.57;;
6354;SDS011;3210;48.708;9.030;2022-08-16T09:09:36;5.43;;;3.57;;
6354;SDS011;3210;48.708;9.030;2022-08-16T09:12:04;4.90;;;3.87;;
6354;SDS011;3210;48.708;9.030;2022-08-16T09:14:32;4.87;;;3.87;;
6354;SDS011;3210;48.708;9.030;2022-08-16T09:16:59;4.33;;;3.73;;
6354;SDS011;3210;48.708;9.030;2022-08-16T09:19:26;7.03;;;3.80;;
6354;SDS011;3210;48.708;9.030;2022-08-16T09:21:53;4.50;;;4.10;;
6354;SDS011;3210;48.708;9.030;2022-08-16T09:24:20;7.93;;;4.10;;
6354;SDS011;3210;48.708;9.030;2022-08-16T09:26:48;5.63;;;3.83;;
6354;SDS011;3210;48.708;9.030;2022-08-16T09:29:15;4.93;;;3.83;;
6354;SDS011;3210;48.708;9.030;2022-08-16T09:31:42;4.60;;;3.90;;
6354;SDS011;3210;48.708;9.030;2022-08-16T09:34:09;6.23;;;3.90;;
6354;SDS011;3210;48.708;9.030;2022-08-16T09:36:36;6.40;;;3.90;;
6354;SDS011;3210;48.708;9.030;2022-08-16T09:39:03;4.70;;;3.80;;
6354;SDS011;3210;48.708;9.030;2022-08-16T09:41:30;5.07;;;3.87;;
6354;SDS011;3210;48.708;9.030;2022-08-16T09:43:59;4.33;;;3.93;;
6354;SDS011;3210;48.708;9.030;2022-08-16T09:46:27;6.13;;;4.57;;
6354;SDS011;3210;48.708;9.030;2022-08-16T09:48:55;9.23;;;3.93;;
6354;SDS011;3210;48.708;9.030;2022-08-16T09:51:22;5.37;;;3.83;;
6354;SDS011;3210;48.708;9.030;2022-08-16T09:53:51;9.67;;;3.13;;
6354;SDS011;3210;48.708;9.030;2022-08-16T09:56:22;4.50;;;3.23;;
6354;SDS011;3210;48.708;9.030;2022-08-16T09:58:51;4.00;;;3.13;;
6354;SDS011;3210;48.708;9.030;2022-08-16T10:01:19;4.90;;;3.80;;
6354;SDS011;3210;48.708;9.030;2022-08-16T10:03:46;7.13;;;3.50;;
6354;SDS011;3210;48.708;9.030;2022-08-16T10:06:13;6.20;;;3.10;;
6354;SDS011;3210;48.708;9.030;2022-08-16T10:08:40;5.10;;;4.43;;
6354;SDS011;3210;48.708;9.030;2022-08-16T10:11:07;4.20;;;3.57;;
6354;SDS011;3210;48.708;9.030;2022-08-16T10:13:51;7.50;;;4.50;;
6354;SDS011;3210;48.708;9.030;2022-08-16T10:16:21;7.20;;;3.70;;
6354;SDS011;3210;48.708;9.030;2022-08-16T10:18:48;5.27;;;3.40;;
6354;SDS011;3210;48.708;9.030;2022-08-16T10:21:15;9.83;;;3.70;;
6354;SDS011;3210;48.708;9.030;2022-08-16T10:23:42;4.70;;;3.93;;
6354;SDS011;3210;48.708;9.030;2022-08-16T10:26:09;4.70;;;3.90;;
6354;SDS011;3210;48.708;9.030;2022-08-16T10:28:37;3.30;;;3.10;;
6354;SDS011;3210;48.708;9.030;2022-08-16T10:31:04;5.00;;;3.10;;
6354;SDS011;3210;48.708;9.030;2022-08-16T10:33:35;7.27;;;3.57;;
6354;SDS011;3210;48.708;9.030;2022-08-16T10:36:04;5.17;;;4.03;;
6354;SDS011;3210;48.708;9.030;2022-08-16T10:38:33;3.97;;;3.60;;
6354;SDS011;3210;48.708;9.030;2022-08-16T10:41:02;8.60;;;3.10;;
6354;SDS011;3210;48.708;9.030;2022-08-16T10:43:29;6.20;;;3.90;;
6354;SDS011;3210;48.708;9.030;2022-08-16T10:45:56;4.13;;;3.10;;
6354;SDS011;3210;48.708;9.030;2022-08-16T10:48:24;3.53;;;3.13;;
6354;SDS011;3210;48.708;9.030;2022-08-16T10:50:53;3.50;;;3.13;;
6354;SDS011;3210;48.708;9.030;2022-08-16T10:53:22;4.40;;;3.70;;
6354;SDS011;3210;48.708;9.030;2022-08-16T10:55:49;4.67;;;3.50;;
6354;SDS011;3210;48.708;9.030;2022-08-16T10:58:16;3.67;;;2.90;;
6354;SDS011;3210;48.708;9.030;2022-08-16T11:00:43;4.43;;;3.37;;
6354;SDS011;3210;48.708;9.030;2022-08-16T11:03:11;12.17;;;3.90;;
6354;SDS011;3210;48.708;9.030;2022-08-16T11:05:39;3.37;;;3.07;;
6354;SDS011;3210;48.708;9.030;2022-08-16T11:08:08;13.47;;;4.10;;
6354;SDS011;3210;48.708;9.030;2022-08-16T11:10:38;7.13;;;3.73;;
6354;SDS011;3210;48.708;9.030;2022-08-16T11:13:08;7.50;;;3.00;;
6354;SDS011;3210;48.708;9.030;2022-08-16T11:15:37;3.43;;;3.00;;
6354;SDS011;3210;48.708;9.030;2022-08-16T11:18:05;6.80;;;3.43;;
6354;SDS011;3210;48.708;9.030;2022-08-16T11:20:32;9.13;;;3.77;;
6354;SDS011;3210;48.708;9.030;2022-08-16T11:22:59;4.73;;;3.10;;
6354;SDS011;3210;48.708;9.030;2022-08-16T11:25:28;6.40;;;3.83;;
6354;SDS011;3210;48.708;9.030;2022-08-16T11:27:57;7.63;;;3.20;;
6354;SDS011;3210;48.708;9.030;2022-08-16T11:30:25;5.63;;;3.50;;
6354;SDS011;3210;48.708;9.030;2022-08-16T11:32:53;3.53;;;3.30;;
6354;SDS011;3210;48.708;9.030;2022-08-16T11:35:21;4.43;;;3.30;;
6354;SDS011;3210;48.708;9.030;2022-08-16T11:37:50;8.13;;;3.27;;
6354;SDS011;3210;48.708;9.030;2022-08-16T11:40:20;6.77;;;3.77;;
6354;SDS011;3210;48.708;9.030;2022-08-16T11:42:49;5.97;;;3.80;;
6354;SDS011;3210;48.708;9.030;2022-08-16T11:45:16;8.37;;;3.20;;
6354;SDS011;3210;48.708;9.030;2022-08-16T11:47:43;6.30;;;3.87;;
6354;SDS011;3210;48.708;9.030;2022-08-16T11:50:10;8.17;;;3.63;;
6354;SDS011;3210;48.708;9.030;2022-08-16T11:52:37;3.93;;;3.00;;
6354;SDS011;3210;48.708;9.030;2022-08-16T11:55:05;4.17;;;3.30;;
6354;SDS011;3210;48.708;9.030;2022-08-16T11:57:34;5.63;;;2.73;;
6354;SDS011;3210;48.708;9.030;2022-08-16T12:00:04;7.63;;;3.42;;
6354;SDS011;3210;48.708;9.030;2022-08-16T12:02:35;3.75;;;3.20;;
6354;SDS011;3210;48.708;9.030;2022-08-16T12:05:03;5.18;;;3.10;;
6354;SDS011;3210;48.708;9.030;2022-08-16T12:07:30;4.50;;;3.00;;
6354;SDS011;3210;48.708;9.030;2022-08-16T12:09:58;6.57;;;2.65;;
6354;SDS011;3210;48.708;9.030;2022-08-16T12:12:24;4.07;;;3.35;;
6354;SDS011;3210;48.708;9.030;2022-08-16T12:14:51;4.25;;;3.10;;
6354;SDS011;3210;48.708;9.030;2022-08-16T12:17:20;4.65;;;2.58;;
6354;SDS011;3210;48.708;9.030;2022-08-16T12:19:47;10.02;;;2.90;;
6354;SDS011;3210;48.708;9.030;2022-08-16T12:22:14;5.15;;;3.20;;
6354;SDS011;3210;48.708;9.030;2022-08-16T12:24:40;6.90;;;3.20;;
6354;SDS011;3210;48.708;9.030;2022-08-16T12:27:07;3.13;;;2.92;;
6354;SDS011;3210;48.708;9.030;2022-08-16T12:29:34;4.55;;;3.05;;
6354;SDS011;3210;48.708;9.030;2022-08-16T12:32:01;8.27;;;2.78;;
6354;SDS011;3210;48.708;9.030;2022-08-16T12:34:30;3.25;;;2.70;;
6354;SDS011;3210;48.708;9.030;2022-08-16T12:36:57;2.90;;;2.63;;
6354;SDS011;3210;48.708;9.030;2022-08-16T12:39:27;4.03;;;2.85;;
6354;SDS011;3210;48.708;9.030;2022-08-16T12:41:54;2.60;;;2.40;;
6354;SDS011;3210;48.708;9.030;2022-08-16T12:44:21;2.60;;;2.40;;
6354;SDS011;3210;48.708;9.030;2022-08-16T12:46:47;5.70;;;2.95;;
6354;SDS011;3210;48.708;9.030;2022-08-16T12:49:36;3.80;;;2.85;;
6354;SDS011;3210;48.708;9.030;2022-08-16T12:52:03;3.70;;;2.50;;
6354;SDS011;3210;48.708;9.030;2022-08-16T12:54:30;6.13;;;2.70;;
6354;SDS011;3210;48.708;9.030;2022-08-16T12:56:57;3.72;;;3.20;;
6354;SDS011;3210;48.708;9.030;2022-08-16T12:59:25;6.32;;;2.88;;
6354;SDS011;3210;48.708;9.030;2022-08-16T13:01:52;5.32;;;3.22;;
6354;SDS011;3210;48.708;9.030;2022-08-16T13:04:19;6.28;;;2.63;;
6354;SDS011;3210;48.708;9.030;2022-08-16T13:06:48;5.78;;;3.08;;
6354;SDS011;3210;48.708;9.030;2022-08-16T13:09:15;7.00;;;2.50;;
6354;SDS011;3210;48.708;9.030;2022-08-16T13:11:52;3.50;;;2.20;;
6354;SDS011;3210;48.708;9.030;2022-08-16T13:14:27;3.03;;;2.58;;
6354;SDS011;3210;48.708;9.030;2022-08-16T13:16:58;3.15;;;2.78;;
6354;SDS011;3210;48.708;9.030;2022-08-16T13:19:26;5.22;;;2.75;;
6354;SDS011;3210;48.708;9.030;2022-08-16T13:21:56;5.40;;;2.72;;
6354;SDS011;3210;48.708;9.030;2022-08-16T13:24:23;8.27;;;2.65;;
6354;SDS011;3210;48.708;9.030;2022-08-16T13:26:50;2.97;;;2.78;;
6354;SDS011;3210;48.708;9.030;2022-08-16T13:29:17;2.58;;;2.38;;
6354;SDS011;3210;48.708;9.030;2022-08-16T13:31:44;3.25;;;3.05;;
6354;SDS011;3210;48.708;9.030;2022-08-16T13:34:11;4.88;;;2.67;;
6354;SDS011;3210;48.708;9.030;2022-08-16T13:36:38;2.75;;;2.50;;
6354;SDS011;3210;48.708;9.030;2022-08-16T13:39:06;3.55;;;2.92;;
6354;SDS011;3210;48.708;9.030;2022-08-16T13:41:33;6.97;;;2.88;;
6354;SDS011;3210;48.708;9.030;2022-08-16T13:44:00;4.35;;;2.25;;
6354;SDS011;3210;48.708;9.030;2022-08-16T13:46:28;2.75;;;2.55;;
6354;SDS011;3210;48.708;9.030;2022-08-16T13:48:56;5.68;;;2.67;;
6354;SDS011;3210;48.708;9.030;2022-08-16T13:51:24;3.88;;;2.50;;
6354;SDS011;3210;48.708;9.030;2022-08-16T13:53:52;4.68;;;3.22;;
6354;SDS011;3210;48.708;9.030;2022-08-16T13:56:23;4.43;;;2.92;;
6354;SDS011;3210;48.708;9.030;2022-08-16T13:58:50;3.58;;;3.00;;
6354;SDS011;3210;48.708;9.030;2022-08-16T14:01:17;6.28;;;2.85;;
6354;SDS011;3210;48.708;9.030;2022-08-16T14:03:44;8.20;;;3.30;;
6354;SDS011;3210;48.708;9.030;2022-08-16T14:06:12;4.80;;;3.20;;
6354;SDS011;3210;48.708;9.030;2022-08-16T14:08:40;7.45;;;3.42;;
6354;SDS011;3210;48.708;9.030;2022-08-16T14:11:07;5.22;;;3.03;;
6354;SDS011;3210;48.708;9.030;2022-08-16T14:13:37;3.80;;;3.10;;
6354;SDS011;3210;48.708;9.030;2022-08-16T14:16:04;5.70;;;2.63;;
6354;SDS011;3210;48.708;9.030;2022-08-16T14:18:31;3.30;;;2.75;;
6354;SDS011;3210;48.708;9.030;2022-08-16T14:20:58;5.53;;;2.80;;
6354;SDS011;3210;48.708;9.030;2022-08-16T14:23:25;4.43;;;3.65;;
6354;SDS011;3210;48.708;9.030;2022-08-16T14:25:52;5.43;;;3.45;;
6354;SDS011;3210;48.708;9.030;2022-08-16T14:28:20;4.93;;;3.03;;
6354;SDS011;3210;48.708;9.030;2022-08-16T14:30:49;8.80;;;3.15;;
6354;SDS011;3210;48.708;9.030;2022-08-16T14:33:16;2.42;;;2.22;;
6354;SDS011;3210;48.708;9.030;2022-08-16T14:35:43;4.72;;;3.13;;
6354;SDS011;3210;48.708;9.030;2022-08-16T14:38:10;5.30;;;2.95;;
6354;SDS011;3210;48.708;9.030;2022-08-16T14:40:37;11.25;;;2.60;;
6354;SDS011;3210;48.708;9.030;2022-08-16T14:43:06;6.55;;;3.58;;
6354;SDS011;3210;48.708;9.030;2022-08-16T14:45:33;3.42;;;2.63;;
6354;SDS011;3210;48.708;9.030;2022-08-16T14:48:02;14.88;;;3.00;;
6354;SDS011;3210;48.708;9.030;2022-08-16T14:50:29;7.57;;;2.50;;
6354;SDS011;3210;48.708;9.030;2022-08-16T14:52:57;3.45;;;3.17;;
6354;SDS011;3210;48.708;9.030;2022-08-16T14:55:26;4.55;;;2.83;;
6354;SDS011;3210;48.708;9.030;2022-08-16T14:57:54;4.43;;;3.10;;
6354;SDS011;3210;48.708;9.030;2022-08-16T15:00:22;3.03;;;2.53;;
6354;SDS011;3210;48.708;9.030;2022-08-16T15:02:50;6.20;;;2.70;;
6354;SDS011;3210;48.708;9.030;2022-08-16T15:05:21;2.50;;;2.30;;
6354;SDS011;3210;48.708;9.030;2022-08-16T15:07:49;4.85;;;2.97;;
6354;SDS011;3210;48.708;9.030;2022-08-16T15:10:17;2.65;;;2.45;;
6354;SDS011;3210;48.708;9.030;2022-08-16T15:12:45;2.55;;;2.35;;
6354;SDS011;3210;48.708;9.030;2022-08-16T15:15:13;4.03;;;2.50;;
6354;SDS011;3210;48.708;9.030;2022-08-16T15:17:44;4.28;;;2.97;;
6354;SDS011;3210;48.708;9.030;2022-08-16T15:20:11;5.68;;;2.60;;